Time;durP1;ratioP1;P1;durP2;ratioP2;P2;SDS_P1;SDS_P2;PMS_P1;PMS_P2;Temp;Humidity;BMP_temperature;BMP_pressure;BME280_temperature;BME280_humidity;BME280_pressure;Samples;Min_cycle;Max_cycle;Signal;HPM_P1;HPM_P2
2023/01/01 00:01:22;;;;;;;12.40;11.90;;;22.90;63.30;;;;;;5052754;28;20451;-55
2023/01/01 00:03:50;;;;;;;11.30;10.87;;;22.80;63.50;;;;;;5053266;28;20445;-57
2023/01/01 00:06:17;;;;;;;11.90;11.40;;;22.80;63.90;;;;;;5052638;28;20440;-58
2023/01/01 00:08:43;;;;;;;11.97;11.53;;;22.70;64.00;;;;;;5053006;28;20494;-57
2023/01/01 00:11:10;;;;;;;12.63;12.03;;;22.70;64.30;;;;;;5052460;28;20440;-52
2023/01/01 00:13:39;;;;;;;12.40;11.80;;;22.60;64.50;;;;;;5052906;28;20444;-58
2023/01/01 00:16:09;;;;;;;12.23;11.73;;;22.50;64.70;;;;;;5052706;28;20482;-53
2023/01/01 00:18:35;;;;;;;12.40;11.90;;;22.50;64.90;;;;;;5052870;28;20482;-55
2023/01/01 00:21:04;;;;;;;13.23;12.53;;;22.50;65.10;;;;;;5052530;28;20502;-53
2023/01/01 00:23:30;;;;;;;13.80;13.10;;;22.40;66.00;;;;;;5052492;28;20872;-53
2023/01/01 00:25:58;;;;;;;13.17;12.40;;;22.40;65.50;;;;;;5052512;28;20440;-56
2023/01/01 00:28:25;;;;;;;12.10;11.60;;;22.30;65.50;;;;;;5052287;28;20468;-51
2023/01/01 00:30:51;;;;;;;13.33;12.63;;;22.30;65.80;;;;;;5052254;28;20455;-56
2023/01/01 00:33:20;;;;;;;12.07;11.50;;;22.20;65.80;;;;;;5052621;28;20448;-52
2023/01/01 00:35:46;;;;;;;12.23;11.70;;;22.20;66.00;;;;;;5052461;28;20571;-57
2023/01/01 00:38:13;;;;;;;12.57;12.10;;;22.20;66.20;;;;;;5052122;28;20592;-58
2023/01/01 00:40:40;;;;;;;14.77;14.07;;;22.10;66.40;;;;;;5052666;28;20486;-51
2023/01/01 00:43:07;;;;;;;13.23;12.53;;;22.10;66.50;;;;;;5037065;28;20528;-51
2023/01/01 00:45:34;;;;;;;12.93;12.37;;;22.10;66.60;;;;;;5045254;28;20528;-53
2023/01/01 00:48:01;;;;;;;14.20;13.50;;;22.00;66.70;;;;;;5052789;28;20523;-52
2023/01/01 00:50:29;;;;;;;13.40;12.80;;;22.00;66.80;;;;;;5052347;28;20444;-50
2023/01/01 00:52:56;;;;;;;12.73;12.20;;;22.00;67.00;;;;;;5052595;28;20543;-54
2023/01/01 00:55:22;;;;;;;12.80;12.20;;;22.00;67.10;;;;;;5052804;28;20564;-52
2023/01/01 00:57:49;;;;;;;13.23;12.53;;;22.00;67.20;;;;;;5052279;28;20531;-53
2023/01/01 01:00:17;;;;;;;13.23;12.43;;;21.90;67.20;;;;;;5051303;28;20551;-56
2023/01/01 01:02:43;;;;;;;13.20;12.40;;;21.90;67.30;;;;;;5052142;28;20444;-53
2023/01/01 01:05:10;;;;;;;13.67;12.97;;;21.90;67.40;;;;;;5051903;28;20540;-56
2023/01/01 01:07:39;;;;;;;13.63;13.00;;;21.90;67.50;;;;;;5051758;28;20444;-54
2023/01/01 01:10:08;;;;;;;14.30;13.60;;;21.90;67.60;;;;;;5051629;28;20472;-53
2023/01/01 01:12:35;;;;;;;12.90;12.40;;;21.90;67.80;;;;;;5051978;28;20459;-53
2023/01/01 01:15:02;;;;;;;13.77;13.00;;;21.80;67.70;;;;;;5051775;28;21310;-52
2023/01/01 01:17:29;;;;;;;12.97;12.37;;;21.90;67.90;;;;;;5051748;28;20531;-53
2023/01/01 01:19:56;;;;;;;12.80;12.30;;;21.80;67.90;;;;;;5050942;28;20472;-54
2023/01/01 01:22:23;;;;;;;13.40;12.70;;;21.80;68.10;;;;;;5051670;28;20945;-56
2023/01/01 01:24:51;;;;;;;14.07;13.37;;;21.80;68.10;;;;;;5051528;28;20440;-55
2023/01/01 01:27:18;;;;;;;12.70;12.20;;;21.80;68.40;;;;;;5051259;28;20444;-54
2023/01/01 01:29:44;;;;;;;13.17;12.57;;;21.70;68.30;;;;;;5051226;28;20468;-52
2023/01/01 01:32:12;;;;;;;12.93;12.43;;;21.70;68.40;;;;;;5051790;28;20972;-54
2023/01/01 01:34:39;;;;;;;13.90;13.00;;;21.70;68.50;;;;;;5050885;28;20455;-56
2023/01/01 01:37:06;;;;;;;12.57;12.07;;;21.70;68.50;;;;;;5051469;28;20451;-53
2023/01/01 01:39:33;;;;;;;12.97;12.53;;;21.70;68.60;;;;;;5051151;28;20471;-54
2023/01/01 01:42:02;;;;;;;12.33;11.60;;;21.70;68.60;;;;;;5051355;28;20455;-56
2023/01/01 01:44:53;;;;;;;13.17;12.57;;;21.70;68.70;;;;;;5051424;28;20455;-54
2023/01/01 01:47:25;;;;;;;13.17;12.57;;;21.70;68.70;;;;;;5051299;28;20437;-56
2023/01/01 01:49:55;;;;;;;12.80;12.20;;;21.60;68.70;;;;;;5050792;28;20478;-56
2023/01/01 01:52:22;;;;;;;12.77;12.27;;;21.60;68.80;;;;;;5051651;28;20444;-52
2023/01/01 01:54:49;;;;;;;12.77;12.17;;;21.60;68.80;;;;;;5051002;28;20458;-53
2023/01/01 01:57:18;;;;;;;12.77;12.17;;;21.60;69.00;;;;;;5051077;28;20960;-56
2023/01/01 01:59:50;;;;;;;13.03;12.53;;;21.60;69.00;;;;;;5050861;28;20475;-53
2023/01/01 02:02:27;;;;;;;12.10;11.70;;;21.60;69.20;;;;;;5050652;28;20446;-52
2023/01/01 02:04:55;;;;;;;13.70;13.10;;;21.50;69.10;;;;;;5054919;28;21138;-53
2023/01/01 02:07:24;;;;;;;12.90;12.40;;;21.50;69.20;;;;;;5055290;28;20455;-56
2023/01/01 02:09:50;;;;;;;12.00;11.60;;;21.50;69.20;;;;;;5054944;28;20466;-55
2023/01/01 02:12:19;;;;;;;12.70;12.00;;;21.50;69.30;;;;;;5055135;28;20518;-53
2023/01/01 02:14:45;;;;;;;12.20;11.80;;;21.50;69.40;;;;;;5054888;28;20444;-55
2023/01/01 02:17:21;;;;;;;12.77;12.20;;;21.50;69.40;;;;;;5055098;28;20512;-53
2023/01/01 02:20:03;;;;;;;12.03;11.63;;;21.50;69.40;;;;;;5054662;28;20471;-56
2023/01/01 02:22:39;;;;;;;11.97;11.57;;;21.50;69.50;;;;;;5054597;28;20452;-52
2023/01/01 02:25:17;;;;;;;12.97;12.47;;;21.50;69.60;;;;;;5054942;28;20451;-56
2023/01/01 02:27:52;;;;;;;12.10;11.60;;;21.40;69.40;;;;;;5054845;28;20457;-56
2023/01/01 02:30:21;;;;;;;11.63;11.23;;;21.40;69.70;;;;;;5052148;28;20551;-56
2023/01/01 02:32:51;;;;;;;12.10;11.60;;;21.40;69.80;;;;;;5054405;28;20440;-54
2023/01/01 02:35:35;;;;;;;11.73;11.23;;;21.40;69.80;;;;;;5054726;28;21032;-55
2023/01/01 02:38:07;;;;;;;11.40;11.00;;;21.40;69.90;;;;;;5054518;28;20479;-54
2023/01/01 02:40:39;;;;;;;12.00;11.50;;;21.40;69.90;;;;;;5054323;28;20460;-52
2023/01/01 02:43:06;;;;;;;12.40;11.90;;;21.40;70.10;;;;;;5054480;28;20444;-55
2023/01/01 02:45:34;;;;;;;11.90;11.50;;;21.40;70.10;;;;;;5054247;28;20436;-56
2023/01/01 02:48:05;;;;;;;11.83;11.37;;;21.40;70.20;;;;;;5054647;28;20473;-53
2023/01/01 02:50:34;;;;;;;11.87;11.47;;;21.40;70.20;;;;;;5054249;28;20448;-53
2023/01/01 02:53:09;;;;;;;12.03;11.60;;;21.40;70.30;;;;;;5054568;28;20482;-54
2023/01/01 02:55:47;;;;;;;11.83;11.43;;;21.40;70.30;;;;;;5053955;28;20481;-55
2023/01/01 03:01:16;;;;;;;11.87;11.43;;;21.40;70.30;;;;;;5054122;28;20443;-54
2023/01/01 03:03:51;;;;;;;12.27;11.40;;;21.40;70.30;;;;;;5054177;28;20454;-56
2023/01/01 03:06:25;;;;;;;11.70;11.20;;;21.30;70.30;;;;;;5054007;28;20443;-52
2023/01/01 03:09:00;;;;;;;11.60;11.03;;;21.30;70.30;;;;;;5050702;28;20471;-55
2023/01/01 03:11:36;;;;;;;11.27;10.87;;;21.30;70.30;;;;;;5037990;28;20440;-53
2023/01/01 03:14:09;;;;;;;11.50;11.10;;;21.30;70.30;;;;;;5053918;28;20816;-53
2023/01/01 03:16:41;;;;;;;11.30;10.90;;;21.30;70.30;;;;;;5053602;28;20480;-56
2023/01/01 03:19:14;;;;;;;11.37;10.97;;;21.30;70.40;;;;;;5053815;28;20476;-55
2023/01/01 03:21:43;;;;;;;10.97;10.67;;;21.30;70.50;;;;;;5053873;28;20451;-52
2023/01/01 03:24:16;;;;;;;11.77;11.27;;;21.30;70.60;;;;;;5053982;28;20458;-56
2023/01/01 03:26:44;;;;;;;11.60;11.20;;;21.30;70.60;;;;;;5053639;28;20440;-52
2023/01/01 03:29:13;;;;;;;11.80;11.40;;;21.30;70.60;;;;;;5067210;28;20467;-56
2023/01/01 03:31:44;;;;;;;11.70;11.30;;;21.30;70.60;;;;;;5055408;28;20456;-56
2023/01/01 03:34:17;;;;;;;11.50;11.10;;;21.30;70.60;;;;;;5053703;28;20448;-54
2023/01/01 03:36:49;;;;;;;11.53;11.13;;;21.30;70.60;;;;;;5053389;28;20981;-56
2023/01/01 03:39:20;;;;;;;11.30;10.90;;;21.30;70.60;;;;;;5053271;28;20541;-54
2023/01/01 03:41:52;;;;;;;10.70;10.40;;;21.20;70.70;;;;;;5053404;28;20451;-55
2023/01/01 03:44:24;;;;;;;11.50;11.10;;;21.20;70.70;;;;;;5053384;28;20532;-56
2023/01/01 03:46:52;;;;;;;11.00;10.60;;;21.20;70.70;;;;;;5053592;28;20449;-52
2023/01/01 03:49:20;;;;;;;11.03;10.63;;;21.20;71.50;;;;;;5053038;28;20460;-53
2023/01/01 03:52:08;;;;;;;11.00;10.60;;;21.20;70.90;;;;;;5053484;28;20946;-55
2023/01/01 03:54:43;;;;;;;11.13;10.73;;;21.20;70.90;;;;;;5053157;28;20870;-55
2023/01/01 03:57:16;;;;;;;10.70;10.20;;;21.20;70.70;;;;;;5033486;28;20571;-56
2023/01/01 03:59:56;;;;;;;11.40;11.00;;;21.20;70.80;;;;;;5050288;28;20478;-57
2023/01/01 04:02:30;;;;;;;10.87;10.47;;;21.20;70.90;;;;;;5053089;28;20538;-52
2023/01/01 04:05:01;;;;;;;11.50;11.10;;;21.20;70.90;;;;;;5053017;28;20447;-52
2023/01/01 04:07:30;;;;;;;10.77;10.47;;;21.20;71.00;;;;;;5052960;28;20444;-55
2023/01/01 04:10:01;;;;;;;10.53;10.23;;;21.20;70.90;;;;;;5052525;28;20957;-56
2023/01/01 04:12:29;;;;;;;11.23;10.83;;;21.20;71.00;;;;;;5053103;28;20450;-56
2023/01/01 04:14:56;;;;;;;11.13;10.77;;;21.20;71.10;;;;;;5052787;28;20450;-54
2023/01/01 04:17:24;;;;;;;11.10;10.70;;;21.20;71.10;;;;;;5052903;28;20480;-53
2023/01/01 04:19:51;;;;;;;10.73;10.33;;;21.30;71.10;;;;;;5052439;28;20567;-52
2023/01/01 04:22:22;;;;;;;10.53;10.23;;;21.30;71.00;;;;;;5052449;28;20543;-53
2023/01/01 04:24:48;;;;;;;10.93;10.53;;;21.30;71.10;;;;;;5052605;28;20502;-53
2023/01/01 04:27:15;;;;;;;10.53;10.23;;;21.30;71.00;;;;;;5048369;28;20535;-56
2023/01/01 04:29:42;;;;;;;10.37;10.07;;;21.30;71.10;;;;;;5052287;28;20923;-53
2023/01/01 04:32:09;;;;;;;10.70;10.30;;;21.30;71.10;;;;;;5052280;28;20543;-55
2023/01/01 04:34:37;;;;;;;10.10;9.80;;;21.40;71.30;;;;;;5052695;28;20539;-57
2023/01/01 04:37:04;;;;;;;10.90;10.50;;;21.40;71.20;;;;;;5051623;28;20567;-57
2023/01/01 04:39:30;;;;;;;10.57;10.20;;;21.30;71.20;;;;;;5052378;28;20506;-53
2023/01/01 04:41:57;;;;;;;10.50;10.20;;;21.40;71.30;;;;;;5051631;28;20543;-52
2023/01/01 04:44:24;;;;;;;10.57;10.17;;;21.40;71.40;;;;;;5052424;28;20523;-55
2023/01/01 04:46:51;;;;;;;10.80;10.37;;;21.40;71.50;;;;;;5052435;28;20440;-55
2023/01/01 04:49:18;;;;;;;10.93;10.43;;;21.40;71.50;;;;;;5052309;28;20543;-53
2023/01/01 04:51:46;;;;;;;11.63;11.20;;;21.40;71.50;;;;;;5052045;28;20476;-52
2023/01/01 04:54:13;;;;;;;10.63;10.30;;;21.40;71.50;;;;;;5052454;28;20812;-52
2023/01/01 04:56:40;;;;;;;10.50;10.20;;;21.40;72.40;;;;;;5052013;28;20484;-57
2023/01/01 04:59:06;;;;;;;10.53;10.20;;;21.40;71.70;;;;;;5051729;28;20474;-56
2023/01/01 05:01:33;;;;;;;10.27;9.87;;;21.40;71.90;;;;;;5051991;28;20449;-54
2023/01/01 05:04:01;;;;;;;10.70;10.30;;;21.40;71.80;;;;;;5051752;28;20451;-54
2023/01/01 05:06:28;;;;;;;10.13;9.83;;;21.40;71.80;;;;;;5051837;28;20786;-53
2023/01/01 05:08:58;;;;;;;10.00;9.70;;;21.40;71.90;;;;;;5051689;28;20559;-52
2023/01/01 05:11:26;;;;;;;10.13;9.83;;;21.40;71.80;;;;;;5051678;28;20963;-54
2023/01/01 05:13:55;;;;;;;10.50;10.20;;;21.40;71.80;;;;;;5051993;28;20872;-56
2023/01/01 05:16:24;;;;;;;10.03;9.73;;;21.40;71.70;;;;;;5051372;28;20472;-53
2023/01/01 05:18:51;;;;;;;10.10;9.80;;;21.50;71.80;;;;;;5052046;28;20555;-57
2023/01/01 05:21:20;;;;;;;10.43;10.03;;;21.50;71.80;;;;;;5051556;28;20444;-57
2023/01/01 05:23:47;;;;;;;10.03;9.83;;;21.50;71.70;;;;;;5051572;28;20784;-57
2023/01/01 05:26:17;;;;;;;10.30;9.90;;;21.50;71.60;;;;;;5051451;28;20440;-57
2023/01/01 05:28:45;;;;;;;10.00;9.70;;;21.50;71.60;;;;;;5032714;28;20465;-57
2023/01/01 05:31:14;;;;;;;11.07;10.57;;;21.50;72.40;;;;;;5051235;28;20447;-56
2023/01/01 05:33:42;;;;;;;9.97;9.67;;;21.50;71.60;;;;;;5051412;28;20454;-56
2023/01/01 05:36:13;;;;;;;10.93;10.63;;;21.50;71.50;;;;;;5051692;28;20451;-57
2023/01/01 05:38:41;;;;;;;9.67;9.40;;;21.50;71.50;;;;;;5050557;28;20475;-56
2023/01/01 05:41:08;;;;;;;10.10;9.80;;;21.50;71.50;;;;;;5051065;28;20444;-57
2023/01/01 05:43:37;;;;;;;10.47;10.07;;;21.50;71.50;;;;;;5051066;28;20455;-58
2023/01/01 05:46:05;;;;;;;10.20;9.80;;;21.50;71.50;;;;;;5051351;28;20573;-56
2023/01/01 05:48:34;;;;;;;10.40;10.10;;;21.50;71.50;;;;;;5051412;28;20826;-55
2023/01/01 05:51:02;;;;;;;10.13;9.87;;;21.50;71.60;;;;;;5051117;28;20471;-56
2023/01/01 05:53:30;;;;;;;10.00;9.70;;;21.50;71.60;;;;;;5051462;28;20444;-56
2023/01/01 05:55:57;;;;;;;10.67;10.27;;;21.50;71.60;;;;;;5051217;28;20448;-54
2023/01/01 05:58:24;;;;;;;11.27;10.77;;;21.50;71.70;;;;;;5050899;28;21027;-55
2023/01/01 06:00:52;;;;;;;10.30;10.00;;;21.50;71.70;;;;;;5051108;28;20972;-55
2023/01/01 06:03:20;;;;;;;10.40;10.10;;;21.50;71.60;;;;;;5050855;28;20436;-54
2023/01/01 06:05:47;;;;;;;10.50;10.10;;;21.50;71.60;;;;;;5051153;28;20447;-58
2023/01/01 06:08:13;;;;;;;10.00;9.70;;;21.50;71.50;;;;;;5051318;28;20526;-57
2023/01/01 06:10:40;;;;;;;9.93;9.63;;;21.60;71.70;;;;;;5050887;28;20452;-56
2023/01/01 06:13:07;;;;;;;10.13;9.83;;;21.50;71.40;;;;;;5050910;28;20440;-57
2023/01/01 06:15:34;;;;;;;9.60;9.40;;;21.50;71.50;;;;;;5051088;28;20444;-57
2023/01/01 06:18:02;;;;;;;10.83;10.53;;;21.60;71.60;;;;;;5050674;28;20478;-56
2023/01/01 06:20:29;;;;;;;11.23;10.83;;;21.50;71.40;;;;;;5051058;28;20535;-58
2023/01/01 06:22:56;;;;;;;9.90;9.60;;;21.60;71.60;;;;;;5050978;28;20480;-56
2023/01/01 06:25:23;;;;;;;10.20;9.90;;;21.60;71.50;;;;;;5051195;28;20535;-57
2023/01/01 06:27:50;;;;;;;10.00;9.70;;;21.60;71.50;;;;;;5050920;28;20527;-56
2023/01/01 06:30:17;;;;;;;10.40;10.10;;;21.60;71.60;;;;;;5050692;28;20822;-57
2023/01/01 06:32:43;;;;;;;10.60;10.30;;;21.60;71.60;;;;;;5051117;28;20492;-55
2023/01/01 06:35:12;;;;;;;10.27;9.97;;;21.50;71.40;;;;;;5050887;28;20535;-57
2023/01/01 06:37:38;;;;;;;9.97;9.67;;;21.50;71.50;;;;;;5050749;28;20486;-55
2023/01/01 06:40:06;;;;;;;10.27;9.97;;;21.50;72.20;;;;;;5050658;28;20554;-55
2023/01/01 06:42:33;;;;;;;10.00;9.70;;;21.60;71.60;;;;;;5050504;28;20440;-56
2023/01/01 06:45:00;;;;;;;10.10;9.80;;;21.60;71.50;;;;;;5050699;28;20949;-57
2023/01/01 06:47:27;;;;;;;10.10;9.80;;;21.60;71.50;;;;;;5050730;28;20445;-58
2023/01/01 06:49:54;;;;;;;10.70;10.40;;;21.60;71.50;;;;;;5053057;28;20555;-58
2023/01/01 06:52:22;;;;;;;10.37;10.07;;;21.60;71.30;;;;;;5054424;28;20451;-56
2023/01/01 06:54:49;;;;;;;10.17;9.87;;;21.60;71.30;;;;;;5054384;28;20812;-54
2023/01/01 06:57:15;;;;;;;9.87;9.57;;;21.60;71.40;;;;;;5054172;28;20484;-56
2023/01/01 06:59:42;;;;;;;10.63;10.33;;;21.60;71.50;;;;;;5053951;28;20921;-57
2023/01/01 07:02:11;;;;;;;10.13;9.83;;;21.60;71.30;;;;;;5054026;28;20538;-53
2023/01/01 07:04:38;;;;;;;10.77;10.47;;;21.60;71.50;;;;;;5054251;28;20810;-57
2023/01/01 07:07:05;;;;;;;10.57;10.27;;;21.60;71.30;;;;;;5053660;28;20436;-57
2023/01/01 07:09:33;;;;;;;10.23;9.93;;;21.60;71.30;;;;;;5054026;28;20469;-57
2023/01/01 07:12:00;;;;;;;9.10;8.90;;;21.60;71.30;;;;;;5053974;28;20531;-57
2023/01/01 07:14:27;;;;;;;9.80;9.50;;;21.60;71.30;;;;;;5054201;28;20462;-55
2023/01/01 07:16:54;;;;;;;10.17;9.87;;;21.60;71.30;;;;;;5053842;28;20475;-56
2023/01/01 07:19:20;;;;;;;9.97;9.67;;;21.60;71.20;;;;;;5053575;28;20484;-57
2023/01/01 07:21:53;;;;;;;10.03;9.73;;;21.60;71.30;;;;;;5054095;28;20535;-54
2023/01/01 07:24:21;;;;;;;10.27;9.97;;;21.60;71.20;;;;;;5053826;28;20809;-55
2023/01/01 07:26:49;;;;;;;9.90;9.60;;;21.60;71.20;;;;;;5053607;28;20447;-57
2023/01/01 07:29:16;;;;;;;9.87;9.57;;;21.60;71.20;;;;;;5053761;28;20567;-57
2023/01/01 07:31:44;;;;;;;9.77;9.47;;;21.60;71.30;;;;;;5053399;28;20824;-57
2023/01/01 07:34:14;;;;;;;10.10;9.80;;;21.60;71.30;;;;;;5053414;28;20444;-56
2023/01/01 07:36:41;;;;;;;9.60;9.30;;;21.60;71.30;;;;;;5053617;28;20457;-57
2023/01/01 07:39:08;;;;;;;10.20;9.90;;;21.60;71.10;;;;;;5053654;28;20475;-57
2023/01/01 07:41:34;;;;;;;9.43;9.20;;;21.60;71.10;;;;;;5053423;28;20440;-56
2023/01/01 07:44:03;;;;;;;9.03;8.83;;;21.60;71.10;;;;;;5053462;28;20454;-57
2023/01/01 07:46:29;;;;;;;9.77;9.47;;;21.60;71.10;;;;;;5053482;28;20527;-56
2023/01/01 07:48:56;;;;;;;9.30;9.00;;;21.70;71.00;;;;;;5053178;28;20556;-56
2023/01/01 07:51:23;;;;;;;8.80;8.60;;;21.60;70.90;;;;;;5053389;28;20444;-56
2023/01/01 07:53:50;;;;;;;9.10;8.80;;;21.70;71.10;;;;;;5053415;28;20532;-56
2023/01/01 07:56:17;;;;;;;9.17;8.97;;;21.60;70.90;;;;;;5053199;28;20536;-56
2023/01/01 07:58:44;;;;;;;9.77;9.47;;;21.60;70.80;;;;;;5052665;28;20491;-57
2023/01/01 08:01:13;;;;;;;9.63;9.33;;;21.70;70.90;;;;;;5052123;28;20623;-57
2023/01/01 08:03:40;;;;;;;9.70;9.40;;;21.60;70.80;;;;;;5053002;28;20448;-55
2023/01/01 08:06:08;;;;;;;9.60;9.40;;;21.60;70.90;;;;;;5053332;28;20539;-56
2023/01/01 08:08:35;;;;;;;9.50;9.20;;;21.60;71.00;;;;;;5053118;28;20886;-55
2023/01/01 08:11:02;;;;;;;9.60;9.40;;;21.60;70.90;;;;;;5052860;28;20543;-58
2023/01/01 08:13:29;;;;;;;9.53;9.20;;;21.60;71.00;;;;;;5052906;28;20531;-57
2023/01/01 08:15:57;;;;;;;9.33;9.03;;;21.60;71.00;;;;;;5052907;28;20868;-56
2023/01/01 08:18:26;;;;;;;9.53;9.20;;;21.60;71.00;;;;;;5052683;28;20476;-55
2023/01/01 08:20:53;;;;;;;9.63;9.23;;;21.70;71.00;;;;;;5052551;28;20814;-54
2023/01/01 08:23:20;;;;;;;9.50;9.20;;;21.70;71.00;;;;;;5052592;28;20824;-56
2023/01/01 08:25:46;;;;;;;9.80;9.50;;;21.70;71.20;;;;;;5052760;28;20539;-57
2023/01/01 08:28:13;;;;;;;9.70;9.40;;;21.70;71.00;;;;;;5052305;28;20494;-53
2023/01/01 08:30:40;;;;;;;10.17;9.80;;;21.70;71.30;;;;;;5052160;28;20892;-50
2023/01/01 08:33:07;;;;;;;10.23;10.03;;;21.80;71.60;;;;;;5052413;28;20543;-51
2023/01/01 08:35:37;;;;;;;11.37;10.97;;;21.90;73.00;;;;;;5052752;28;20539;-56
2023/01/01 08:38:03;;;;;;;11.53;11.13;;;21.90;73.30;;;;;;5036438;28;20472;-55
2023/01/01 08:40:30;;;;;;;10.70;10.30;;;22.00;72.90;;;;;;5052332;28;20528;-55
2023/01/01 08:42:57;;;;;;;10.90;10.50;;;22.10;72.80;;;;;;5043860;28;20539;-52
2023/01/01 08:45:24;;;;;;;10.90;10.40;;;22.10;74.30;;;;;;5052271;28;20882;-52
2023/01/01 08:47:51;;;;;;;10.93;10.63;;;22.20;72.80;;;;;;5052188;28;20444;-51
2023/01/01 08:50:17;;;;;;;11.60;11.20;;;22.30;72.60;;;;;;5051334;28;20861;-54
2023/01/01 08:52:46;;;;;;;10.93;10.63;;;22.30;71.80;;;;;;5052143;28;20531;-56
2023/01/01 08:55:12;;;;;;;10.50;10.20;;;22.40;71.10;;;;;;5052104;28;20539;-56
2023/01/01 08:57:39;;;;;;;11.10;10.70;;;22.40;70.50;;;;;;5052181;28;20575;-51
2023/01/01 09:00:08;;;;;;;11.23;10.67;;;22.50;71.00;;;;;;5051682;28;20558;-52
2023/01/01 09:02:35;;;;;;;11.63;11.23;;;22.50;70.30;;;;;;5052062;28;20460;-56
2023/01/01 09:05:02;;;;;;;11.13;10.73;;;22.60;70.50;;;;;;5052213;28;20799;-54
2023/01/01 09:07:28;;;;;;;11.30;10.90;;;22.70;71.30;;;;;;5052170;28;20440;-51
2023/01/01 09:09:57;;;;;;;10.57;10.07;;;22.70;70.50;;;;;;5051458;28;21005;-58
2023/01/01 09:12:23;;;;;;;11.30;11.00;;;22.80;70.00;;;;;;5051776;28;20543;-54
2023/01/01 09:14:50;;;;;;;10.27;9.97;;;22.90;69.10;;;;;;5052003;28;20455;-60
2023/01/01 09:17:17;;;;;;;9.70;9.40;;;22.90;69.20;;;;;;5051619;28;20448;-53
2023/01/01 09:19:44;;;;;;;11.93;11.53;;;22.90;68.50;;;;;;5051357;28;20478;-52
2023/01/01 09:22:12;;;;;;;11.63;11.23;;;22.90;68.30;;;;;;5051542;28;21037;-57
2023/01/01 09:24:39;;;;;;;12.53;12.10;;;23.00;67.90;;;;;;5040398;28;20452;-52
2023/01/01 09:27:07;;;;;;;11.23;10.93;;;23.00;68.00;;;;;;5051457;28;20444;-57
2023/01/01 09:29:34;;;;;;;11.97;11.47;;;23.00;68.10;;;;;;5051369;28;20470;-53
2023/01/01 09:32:00;;;;;;;11.07;10.77;;;23.00;67.90;;;;;;5051395;28;20543;-52
2023/01/01 09:34:27;;;;;;;11.10;10.80;;;23.00;67.60;;;;;;5051198;28;20833;-53
2023/01/01 09:36:54;;;;;;;12.20;11.70;;;23.00;67.30;;;;;;5050940;28;20523;-56
2023/01/01 09:39:21;;;;;;;11.90;11.50;;;23.10;68.10;;;;;;5050952;28;20486;-53
2023/01/01 09:42:18;;;;;;;11.20;10.90;;;23.10;67.80;;;;;;5049939;28;20444;-54
2023/01/01 09:45:09;;;;;;;11.70;11.30;;;23.20;67.60;;;;;;5051406;28;20449;-57
2023/01/01 09:47:40;;;;;;;11.63;11.03;;;23.20;66.80;;;;;;5051370;28;20440;-54
2023/01/01 09:50:12;;;;;;;11.47;11.07;;;23.30;67.30;;;;;;5051059;28;20471;-51
2023/01/01 09:52:45;;;;;;;11.20;10.90;;;23.30;66.40;;;;;;5051031;28;20543;-52
2023/01/01 09:55:23;;;;;;;11.33;10.93;;;23.30;66.80;;;;;;5051614;28;20441;-56
2023/01/01 09:57:51;;;;;;;11.43;11.13;;;23.30;66.10;;;;;;5050766;28;20482;-56
2023/01/01 10:00:19;;;;;;;11.40;10.93;;;23.40;66.00;;;;;;5050783;28;20468;-55
2023/01/01 10:03:08;;;;;;;11.80;11.40;;;23.40;65.60;;;;;;5051218;28;20821;-51
2023/01/01 10:05:47;;;;;;;11.60;11.30;;;23.40;65.80;;;;;;5051280;28;20451;-53
2023/01/01 10:08:25;;;;;;;12.63;12.13;;;23.40;66.80;;;;;;5050951;28;20450;-57
2023/01/01 10:11:03;;;;;;;12.10;11.70;;;23.40;65.50;;;;;;5050682;28;20807;-52
2023/01/01 10:13:37;;;;;;;11.37;10.97;;;23.50;65.60;;;;;;5030939;28;20510;-56
2023/01/01 10:16:10;;;;;;;11.47;11.07;;;23.50;65.30;;;;;;5032815;28;20456;-58
2023/01/01 10:18:38;;;;;;;11.07;10.77;;;23.50;65.10;;;;;;5051015;28;20488;-53
2023/01/01 10:21:10;;;;;;;11.53;11.03;;;23.50;64.80;;;;;;5050976;28;20524;-50
2023/01/01 10:23:43;;;;;;;11.53;11.20;;;23.50;65.00;;;;;;5042969;28;20452;-53
2023/01/01 10:26:13;;;;;;;12.03;11.63;;;23.50;65.30;;;;;;5035313;28;20451;-54
2023/01/01 10:28:48;;;;;;;11.83;11.43;;;23.50;65.20;;;;;;5049301;28;20478;-54
2023/01/01 10:31:17;;;;;;;11.57;11.23;;;23.50;64.70;;;;;;5055447;28;20453;-51
2023/01/01 10:33:46;;;;;;;11.83;11.53;;;23.60;64.70;;;;;;5054980;28;21009;-54
2023/01/01 10:36:17;;;;;;;12.20;11.80;;;23.60;64.60;;;;;;5055309;28;20444;-54
2023/01/01 10:38:45;;;;;;;9.40;9.10;;;23.60;64.10;;;;;;5053695;28;20448;-54
2023/01/01 10:41:13;;;;;;;12.10;11.50;;;23.60;64.50;;;;;;5037901;28;20294;-52
2023/01/01 10:43:42;;;;;;;10.90;10.60;;;23.70;64.40;;;;;;5035710;28;20459;-54
2023/01/01 10:46:12;;;;;;;11.60;11.30;;;23.70;63.30;;;;;;5054645;28;20535;-51
2023/01/01 10:48:41;;;;;;;11.20;10.80;;;23.60;63.30;;;;;;5054679;28;20991;-53
2023/01/01 10:51:16;;;;;;;10.63;10.33;;;23.60;64.10;;;;;;5054728;28;20448;-57
2023/01/01 10:53:49;;;;;;;11.00;10.70;;;23.70;64.60;;;;;;5054681;28;20530;-56
2023/01/01 10:56:18;;;;;;;10.93;10.53;;;23.70;64.60;;;;;;5054559;28;20444;-57
2023/01/01 10:58:48;;;;;;;11.13;10.70;;;23.70;64.30;;;;;;5054094;28;20567;-52
2023/01/01 11:01:21;;;;;;;11.00;10.70;;;23.80;64.50;;;;;;5054488;28;20448;-53
2023/01/01 11:04:00;;;;;;;10.80;10.50;;;23.80;64.40;;;;;;5054036;28;20444;-55
2023/01/01 11:06:28;;;;;;;11.77;11.37;;;23.80;64.50;;;;;;5054622;28;20444;-53
2023/01/01 11:08:56;;;;;;;11.60;11.30;;;23.80;64.50;;;;;;5054285;28;20496;-50
2023/01/01 11:11:28;;;;;;;10.70;10.40;;;23.80;64.20;;;;;;5054007;28;20471;-51
2023/01/01 11:13:59;;;;;;;10.70;10.40;;;23.80;64.10;;;;;;5034359;28;20930;-51
2023/01/01 11:16:27;;;;;;;11.80;11.40;;;23.90;64.10;;;;;;5041768;28;20806;-55
2023/01/01 11:19:01;;;;;;;11.47;10.40;;;23.80;63.80;;;;;;5054309;28;20504;-57
2023/01/01 11:21:28;;;;;;;10.50;10.30;;;23.80;63.60;;;;;;5054306;28;20444;-56
2023/01/01 11:24:12;;;;;;;11.57;11.13;;;23.80;63.50;;;;;;5054505;28;20450;-57
2023/01/01 11:26:38;;;;;;;11.20;10.90;;;23.70;63.80;;;;;;5053820;28;20458;-56
2023/01/01 11:29:25;;;;;;;10.57;10.27;;;23.60;64.10;;;;;;5053644;28;20554;-56
2023/01/01 11:31:52;;;;;;;11.67;10.80;;;23.60;64.30;;;;;;5053826;28;20445;-51
2023/01/01 11:34:33;;;;;;;11.47;11.07;;;23.70;65.90;;;;;;5053564;28;20448;-57
2023/01/01 11:37:21;;;;;;;10.90;10.60;;;23.70;65.90;;;;;;5052566;28;21005;-57
2023/01/01 11:39:53;;;;;;;11.10;10.80;;;23.80;65.90;;;;;;5053405;28;20484;-53
2023/01/01 11:42:22;;;;;;;11.57;11.27;;;23.90;66.00;;;;;;5053064;28;21044;-57
2023/01/01 11:44:53;;;;;;;11.67;11.37;;;23.90;66.10;;;;;;5053778;28;20440;-56
2023/01/01 11:47:26;;;;;;;11.27;10.97;;;23.90;65.80;;;;;;5053507;28;20953;-56
2023/01/01 11:49:56;;;;;;;11.40;11.10;;;23.90;65.30;;;;;;5053188;28;20464;-55
2023/01/01 11:52:36;;;;;;;11.87;11.40;;;23.90;65.30;;;;;;5053729;28;20800;-55
2023/01/01 11:55:19;;;;;;;11.50;11.20;;;24.00;65.00;;;;;;5053865;28;20755;-57
2023/01/01 11:57:53;;;;;;;12.07;11.77;;;24.00;64.60;;;;;;5053079;28;20471;-57
2023/01/01 12:00:22;;;;;;;11.90;11.50;;;24.00;64.40;;;;;;5053088;28;20455;-55
2023/01/01 12:02:56;;;;;;;11.17;10.87;;;24.10;64.20;;;;;;5052789;28;20527;-56
2023/01/01 12:05:28;;;;;;;11.40;11.10;;;24.10;64.20;;;;;;5053142;28;20856;-54
2023/01/01 12:07:58;;;;;;;11.83;11.43;;;24.00;64.40;;;;;;5052983;28;20505;-55
2023/01/01 12:10:28;;;;;;;11.87;11.53;;;24.10;64.80;;;;;;5053324;28;20547;-51
2023/01/01 12:13:00;;;;;;;12.40;11.90;;;24.10;64.10;;;;;;5053423;28;20436;-52
2023/01/01 12:15:35;;;;;;;11.03;10.73;;;24.10;64.00;;;;;;5053274;28;20849;-54
2023/01/01 12:18:10;;;;;;;11.50;11.10;;;24.10;64.10;;;;;;5052082;28;20440;-50
2023/01/01 12:20:44;;;;;;;11.47;11.17;;;24.20;63.70;;;;;;5053911;28;20448;-50
2023/01/01 12:23:14;;;;;;;11.10;10.80;;;24.20;63.40;;;;;;5053633;28;20448;-58
2023/01/01 12:25:43;;;;;;;11.10;10.70;;;24.10;62.70;;;;;;5052776;28;20962;-56
2023/01/01 12:28:25;;;;;;;10.60;10.30;;;23.90;63.00;;;;;;5052374;28;20968;-59
2023/01/01 12:31:01;;;;;;;11.80;11.40;;;23.80;63.60;;;;;;5052494;28;20483;-61
2023/01/01 12:33:51;;;;;;;10.50;10.20;;;23.80;64.10;;;;;;5054706;28;20455;-53
2023/01/01 12:36:31;;;;;;;10.30;10.10;;;23.70;64.20;;;;;;5054810;28;20506;-58
2023/01/01 12:39:26;;;;;;;10.60;10.30;;;23.70;64.40;;;;;;5054122;28;20479;-55
2023/01/01 12:42:00;;;;;;;10.43;10.13;;;23.70;65.40;;;;;;5044376;28;20556;-58
2023/01/01 12:44:35;;;;;;;10.17;9.87;;;23.80;63.90;;;;;;5053407;28;20455;-52
2023/01/01 12:47:09;;;;;;;11.10;10.80;;;23.70;64.00;;;;;;5052121;28;20479;-54